sensor_id;sensor_type;location;lat;lon;timestamp;pressure;altitude;pressure_sealevel;temperature;humidity
47726;BME280;33483;48.294;16.388;2022-11-20T00:01:11;99261.28;;;0.42;100.00
47726;BME280;33483;48.294;16.388;2022-11-20T00:03:41;99260.25;;;0.40;100.00
47726;BME280;33483;48.294;16.388;2022-11-20T00:06:11;99258.00;;;0.38;100.00
47726;BME280;33483;48.294;16.388;2022-11-20T00:08:39;99246.44;;;0.43;100.00
47726;BME280;33483;48.294;16.388;2022-11-20T00:11:12;99255.09;;;0.42;100.00
47726;BME280;33483;48.294;16.388;2022-11-20T00:13:46;99262.38;;;0.36;100.00
47726;BME280;33483;48.294;16.388;2022-11-20T00:16:16;99256.75;;;0.39;100.00
47726;BME280;33483;48.294;16.388;2022-11-20T00:18:44;99256.28;;;0.41;100.00
47726;BME280;33483;48.294;16.388;2022-11-20T00:21:13;99263.25;;;0.42;100.00
47726;BME280;33483;48.294;16.388;2022-11-20T00:23:42;99253.75;;;0.37;100.00
47726;BME280;33483;48.294;16.388;2022-11-20T00:26:15;99252.72;;;0.35;100.00
47726;BME280;33483;48.294;16.388;2022-11-20T00:28:43;99253.56;;;0.41;100.00
47726;BME280;33483;48.294;16.388;2022-11-20T00:31:13;99247.66;;;0.42;100.00
47726;BME280;33483;48.294;16.388;2022-11-20T00:33:42;99263.88;;;0.37;100.00
47726;BME280;33483;48.294;16.388;2022-11-20T00:36:21;99270.22;;;0.43;100.00
47726;BME280;33483;48.294;16.388;2022-11-20T00:38:57;99269.63;;;0.39;100.00
47726;BME280;33483;48.294;16.388;2022-11-20T00:41:25;99274.16;;;0.42;100.00
47726;BME280;33483;48.294;16.388;2022-11-20T00:43:54;99278.69;;;0.45;100.00
47726;BME280;33483;48.294;16.388;2022-11-20T00:46:24;99285.94;;;0.48;100.00
47726;BME280;33483;48.294;16.388;2022-11-20T00:48:52;99286.28;;;0.41;100.00
47726;BME280;33483;48.294;16.388;2022-11-20T00:51:22;99295.69;;;0.40;100.00
47726;BME280;33483;48.294;16.388;2022-11-20T00:53:55;99287.81;;;0.42;100.00
47726;BME280;33483;48.294;16.388;2022-11-20T00:56:22;99294.75;;;0.43;100.00
47726;BME280;33483;48.294;16.388;2022-11-20T00:58:49;99288.53;;;0.42;100.00
47726;BME280;33483;48.294;16.388;2022-11-20T01:01:24;99283.91;;;0.34;100.00
47726;BME280;33483;48.294;16.388;2022-11-20T01:03:53;99281.47;;;0.36;100.00
47726;BME280;33483;48.294;16.388;2022-11-20T01:06:22;99303.41;;;0.41;100.00
47726;BME280;33483;48.294;16.388;2022-11-20T01:08:52;99297.34;;;0.37;100.00
47726;BME280;33483;48.294;16.388;2022-11-20T01:11:25;99302.16;;;0.42;100.00
47726;BME280;33483;48.294;16.388;2022-11-20T01:13:55;99305.06;;;0.39;100.00
47726;BME280;33483;48.294;16.388;2022-11-20T01:16:36;99310.97;;;0.37;100.00
47726;BME280;33483;48.294;16.388;2022-11-20T01:19:06;99305.22;;;0.35;100.00
47726;BME280;33483;48.294;16.388;2022-11-20T01:21:36;99312.50;;;0.38;100.00
47726;BME280;33483;48.294;16.388;2022-11-20T01:24:05;99306.47;;;0.34;100.00
47726;BME280;33483;48.294;16.388;2022-11-20T01:26:36;99299.31;;;0.37;100.00
47726;BME280;33483;48.294;16.388;2022-11-20T01:29:05;99302.03;;;0.37;100.00
47726;BME280;33483;48.294;16.388;2022-11-20T01:31:35;99303.75;;;0.34;100.00
47726;BME280;33483;48.294;16.388;2022-11-20T01:34:09;99287.03;;;0.41;100.00
47726;BME280;33483;48.294;16.388;2022-11-20T01:36:37;99296.72;;;0.42;100.00
47726;BME280;33483;48.294;16.388;2022-11-20T01:41:38;99292.97;;;0.40;100.00
47726;BME280;33483;48.294;16.388;2022-11-20T01:44:57;99284.78;;;0.40;100.00
47726;BME280;33483;48.294;16.388;2022-11-20T01:47:40;99286.09;;;0.44;100.00
47726;BME280;33483;48.294;16.388;2022-11-20T01:50:17;99294.09;;;0.48;100.00
47726;BME280;33483;48.294;16.388;2022-11-20T01:52:50;99287.88;;;0.47;100.00
47726;BME280;33483;48.294;16.388;2022-11-20T01:55:23;99295.44;;;0.52;100.00
47726;BME280;33483;48.294;16.388;2022-11-20T01:57:52;99277.88;;;0.53;100.00
47726;BME280;33483;48.294;16.388;2022-11-20T02:00:20;99276.06;;;0.50;100.00
47726;BME280;33483;48.294;16.388;2022-11-20T02:02:57;99284.97;;;0.51;100.00
47726;BME280;33483;48.294;16.388;2022-11-20T02:05:31;99291.50;;;0.53;100.00
47726;BME280;33483;48.294;16.388;2022-11-20T02:08:02;99284.81;;;0.54;100.00
47726;BME280;33483;48.294;16.388;2022-11-20T02:10:30;99296.66;;;0.51;100.00
47726;BME280;33483;48.294;16.388;2022-11-20T02:12:58;99299.03;;;0.58;100.00
47726;BME280;33483;48.294;16.388;2022-11-20T02:15:44;99308.09;;;0.64;100.00
47726;BME280;33483;48.294;16.388;2022-11-20T02:18:16;99305.72;;;0.57;100.00
47726;BME280;33483;48.294;16.388;2022-11-20T02:20:46;99301.94;;;0.55;100.00
47726;BME280;33483;48.294;16.388;2022-11-20T02:23:22;99310.69;;;0.59;100.00
47726;BME280;33483;48.294;16.388;2022-11-20T02:25:54;99312.66;;;0.58;100.00
47726;BME280;33483;48.294;16.388;2022-11-20T02:28:21;99319.81;;;0.56;100.00
47726;BME280;33483;48.294;16.388;2022-11-20T02:30:49;99308.91;;;0.56;100.00
47726;BME280;33483;48.294;16.388;2022-11-20T02:33:16;99316.78;;;0.54;100.00
47726;BME280;33483;48.294;16.388;2022-11-20T02:35:45;99308.63;;;0.54;100.00
47726;BME280;33483;48.294;16.388;2022-11-20T02:38:14;99300.63;;;0.50;100.00
47726;BME280;33483;48.294;16.388;2022-11-20T02:40:42;99295.69;;;0.40;100.00
47726;BME280;33483;48.294;16.388;2022-11-20T02:43:12;99297.34;;;0.37;100.00
47726;BME280;33483;48.294;16.388;2022-11-20T02:45:39;99296.75;;;0.33;100.00
47726;BME280;33483;48.294;16.388;2022-11-20T02:48:06;99304.50;;;0.35;100.00
47726;BME280;33483;48.294;16.388;2022-11-20T02:50:36;99301.31;;;0.36;100.00
47726;BME280;33483;48.294;16.388;2022-11-20T02:53:04;99297.53;;;0.34;100.00
47726;BME280;33483;48.294;16.388;2022-11-20T02:55:31;99287.38;;;0.34;100.00
47726;BME280;33483;48.294;16.388;2022-11-20T02:57:58;99279.97;;;0.35;100.00
47726;BME280;33483;48.294;16.388;2022-11-20T03:00:25;99277.88;;;0.30;100.00
47726;BME280;33483;48.294;16.388;2022-11-20T03:02:52;99270.28;;;0.34;100.00
47726;BME280;33483;48.294;16.388;2022-11-20T03:05:20;99283.03;;;0.28;100.00
47726;BME280;33483;48.294;16.388;2022-11-20T03:07:47;99263.38;;;0.24;100.00
47726;BME280;33483;48.294;16.388;2022-11-20T03:10:14;99267.34;;;0.23;100.00
47726;BME280;33483;48.294;16.388;2022-11-20T03:12:41;99259.91;;;0.23;100.00
47726;BME280;33483;48.294;16.388;2022-11-20T03:15:09;99252.66;;;0.20;100.00
47726;BME280;33483;48.294;16.388;2022-11-20T03:17:36;99249.59;;;0.27;100.00
47726;BME280;33483;48.294;16.388;2022-11-20T03:20:03;99246.75;;;0.22;100.00
47726;BME280;33483;48.294;16.388;2022-11-20T03:22:33;99237.34;;;0.23;100.00
47726;BME280;33483;48.294;16.388;2022-11-20T03:25:00;99239.50;;;0.19;100.00
47726;BME280;33483;48.294;16.388;2022-11-20T03:27:31;99236.19;;;0.15;100.00
47726;BME280;33483;48.294;16.388;2022-11-20T03:30:05;99230.16;;;0.11;100.00
47726;BME280;33483;48.294;16.388;2022-11-20T03:32:32;99235.50;;;0.05;100.00
47726;BME280;33483;48.294;16.388;2022-11-20T03:35:00;99240.31;;;0.10;100.00
47726;BME280;33483;48.294;16.388;2022-11-20T03:37:27;99249.22;;;0.11;100.00
47726;BME280;33483;48.294;16.388;2022-11-20T03:39:54;99245.28;;;0.12;100.00
47726;BME280;33483;48.294;16.388;2022-11-20T03:42:21;99251.94;;;0.11;100.00
47726;BME280;33483;48.294;16.388;2022-11-20T03:45:07;99251.22;;;0.10;100.00
47726;BME280;33483;48.294;16.388;2022-11-20T03:47:34;99254.84;;;0.07;100.00
47726;BME280;33483;48.294;16.388;2022-11-20T03:50:02;99240.78;;;0.09;100.00
47726;BME280;33483;48.294;16.388;2022-11-20T03:52:29;99250.44;;;0.10;100.00
47726;BME280;33483;48.294;16.388;2022-11-20T03:55:01;99244.34;;;0.15;100.00
47726;BME280;33483;48.294;16.388;2022-11-20T03:57:28;99236.66;;;0.13;100.00
47726;BME280;33483;48.294;16.388;2022-11-20T03:59:56;99246.44;;;0.20;100.00
47726;BME280;33483;48.294;16.388;2022-11-20T04:02:24;99235.91;;;0.13;100.00
47726;BME280;33483;48.294;16.388;2022-11-20T04:04:51;99240.69;;;0.18;100.00
47726;BME280;33483;48.294;16.388;2022-11-20T04:07:18;99239.78;;;0.21;100.00
47726;BME280;33483;48.294;16.388;2022-11-20T04:09:45;99232.81;;;0.20;100.00
47726;BME280;33483;48.294;16.388;2022-11-20T04:12:12;99232.53;;;0.18;100.00
47726;BME280;33483;48.294;16.388;2022-11-20T04:14:40;99228.47;;;0.13;100.00
47726;BME280;33483;48.294;16.388;2022-11-20T04:17:09;99219.06;;;0.14;100.00
47726;BME280;33483;48.294;16.388;2022-11-20T04:19:36;99220.47;;;0.10;100.00
47726;BME280;33483;48.294;16.388;2022-11-20T04:22:03;99220.78;;;0.12;100.00
47726;BME280;33483;48.294;16.388;2022-11-20T04:24:31;99222.91;;;0.08;100.00
47726;BME280;33483;48.294;16.388;2022-11-20T04:26:58;99220.38;;;0.04;100.00
47726;BME280;33483;48.294;16.388;2022-11-20T04:29:25;99214.34;;;0.00;100.00
47726;BME280;33483;48.294;16.388;2022-11-20T04:31:52;99214.75;;;0.08;100.00
47726;BME280;33483;48.294;16.388;2022-11-20T04:34:19;99215.09;;;0.00;100.00
47726;BME280;33483;48.294;16.388;2022-11-20T04:36:46;99203.47;;;0.00;100.00
47726;BME280;33483;48.294;16.388;2022-11-20T04:39:14;99208.69;;;0.03;100.00
47726;BME280;33483;48.294;16.388;2022-11-20T04:41:46;99206.28;;;0.06;100.00
47726;BME280;33483;48.294;16.388;2022-11-20T04:44:14;99194.06;;;0.01;100.00
47726;BME280;33483;48.294;16.388;2022-11-20T04:46:42;99180.91;;;-0.01;100.00
47726;BME280;33483;48.294;16.388;2022-11-20T04:49:10;99176.41;;;-0.04;100.00
47726;BME280;33483;48.294;16.388;2022-11-20T04:51:38;99170.31;;;0.02;100.00
47726;BME280;33483;48.294;16.388;2022-11-20T04:54:05;99167.56;;;0.02;100.00
47726;BME280;33483;48.294;16.388;2022-11-20T04:56:34;99170.19;;;-0.04;100.00
47726;BME280;33483;48.294;16.388;2022-11-20T04:59:02;99170.00;;;-0.01;100.00
47726;BME280;33483;48.294;16.388;2022-11-20T05:01:29;99175.28;;;0.03;100.00
47726;BME280;33483;48.294;16.388;2022-11-20T05:03:57;99176.31;;;0.06;100.00
47726;BME280;33483;48.294;16.388;2022-11-20T05:06:24;99170.84;;;0.06;100.00
47726;BME280;33483;48.294;16.388;2022-11-20T05:08:52;99174.63;;;0.08;100.00
47726;BME280;33483;48.294;16.388;2022-11-20T05:11:20;99180.19;;;0.14;100.00
47726;BME280;33483;48.294;16.388;2022-11-20T05:13:49;99177.47;;;0.14;100.00
47726;BME280;33483;48.294;16.388;2022-11-20T05:16:21;99179.91;;;0.12;100.00
47726;BME280;33483;48.294;16.388;2022-11-20T05:18:50;99173.81;;;0.17;100.00
47726;BME280;33483;48.294;16.388;2022-11-20T05:21:19;99178.38;;;0.11;100.00
47726;BME280;33483;48.294;16.388;2022-11-20T05:23:49;99181.69;;;0.15;100.00
47726;BME280;33483;48.294;16.388;2022-11-20T05:26:21;99178.22;;;0.14;100.00
47726;BME280;33483;48.294;16.388;2022-11-20T05:28:50;99189.41;;;0.16;100.00
47726;BME280;33483;48.294;16.388;2022-11-20T05:31:22;99187.09;;;0.24;100.00
47726;BME280;33483;48.294;16.388;2022-11-20T05:33:56;99182.88;;;0.23;100.00
47726;BME280;33483;48.294;16.388;2022-11-20T05:36:23;99184.34;;;0.24;100.00
47726;BME280;33483;48.294;16.388;2022-11-20T05:38:50;99197.50;;;0.25;100.00
47726;BME280;33483;48.294;16.388;2022-11-20T05:41:22;99197.69;;;0.22;100.00
47726;BME280;33483;48.294;16.388;2022-11-20T05:43:50;99199.38;;;0.19;100.00
47726;BME280;33483;48.294;16.388;2022-11-20T05:46:19;99203.72;;;0.26;100.00
47726;BME280;33483;48.294;16.388;2022-11-20T05:48:54;99210.19;;;0.28;100.00
47726;BME280;33483;48.294;16.388;2022-11-20T05:51:21;99205.22;;;0.27;100.00
47726;BME280;33483;48.294;16.388;2022-11-20T05:53:48;99204.50;;;0.26;100.00
47726;BME280;33483;48.294;16.388;2022-11-20T05:56:20;99211.25;;;0.31;100.00
47726;BME280;33483;48.294;16.388;2022-11-20T05:58:48;99213.22;;;0.30;100.00
47726;BME280;33483;48.294;16.388;2022-11-20T06:01:23;99219.25;;;0.34;100.00
47726;BME280;33483;48.294;16.388;2022-11-20T06:03:52;99217.09;;;0.38;100.00
47726;BME280;33483;48.294;16.388;2022-11-20T06:06:20;99215.59;;;0.37;100.00
47726;BME280;33483;48.294;16.388;2022-11-20T06:08:48;99210.31;;;0.34;100.00
47726;BME280;33483;48.294;16.388;2022-11-20T06:11:16;99214.28;;;0.33;100.00
47726;BME280;33483;48.294;16.388;2022-11-20T06:13:44;99210.84;;;0.23;100.00
47726;BME280;33483;48.294;16.388;2022-11-20T06:16:15;99214.03;;;0.22;100.00
47726;BME280;33483;48.294;16.388;2022-11-20T06:18:43;99212.06;;;0.22;100.00
47726;BME280;33483;48.294;16.388;2022-11-20T06:21:15;99226.72;;;0.25;100.00
47726;BME280;33483;48.294;16.388;2022-11-20T06:23:43;99217.63;;;0.28;100.00
47726;BME280;33483;48.294;16.388;2022-11-20T06:26:19;99221.38;;;0.30;100.00
47726;BME280;33483;48.294;16.388;2022-11-20T06:28:51;99222.16;;;0.31;100.00
47726;BME280;33483;48.294;16.388;2022-11-20T06:31:21;99224.88;;;0.31;100.00
47726;BME280;33483;48.294;16.388;2022-11-20T06:33:51;99225.72;;;0.37;100.00
47726;BME280;33483;48.294;16.388;2022-11-20T06:36:21;99227.25;;;0.38;100.00
47726;BME280;33483;48.294;16.388;2022-11-20T06:38:49;99234.47;;;0.41;100.00
47726;BME280;33483;48.294;16.388;2022-11-20T06:41:18;99241.16;;;0.40;100.00
47726;BME280;33483;48.294;16.388;2022-11-20T06:43:46;99241.00;;;0.43;100.00
47726;BME280;33483;48.294;16.388;2022-11-20T06:46:14;99248.69;;;0.45;100.00
47726;BME280;33483;48.294;16.388;2022-11-20T06:48:47;99258.06;;;0.44;100.00
47726;BME280;33483;48.294;16.388;2022-11-20T06:51:15;99254.91;;;0.45;100.00
47726;BME280;33483;48.294;16.388;2022-11-20T06:53:43;99263.72;;;0.40;100.00
47726;BME280;33483;48.294;16.388;2022-11-20T06:56:10;99267.50;;;0.43;100.00
47726;BME280;33483;48.294;16.388;2022-11-20T06:58:37;99260.81;;;0.44;100.00
47726;BME280;33483;48.294;16.388;2022-11-20T07:01:10;99264.81;;;0.34;100.00
47726;BME280;33483;48.294;16.388;2022-11-20T07:03:39;99264.66;;;0.37;100.00
47726;BME280;33483;48.294;16.388;2022-11-20T07:06:06;99253.38;;;0.44;100.00
47726;BME280;33483;48.294;16.388;2022-11-20T07:08:34;99266.25;;;0.44;100.00
47726;BME280;33483;48.294;16.388;2022-11-20T07:11:04;99270.22;;;0.43;100.00
47726;BME280;33483;48.294;16.388;2022-11-20T07:13:32;99273.53;;;0.47;100.00
47726;BME280;33483;48.294;16.388;2022-11-20T07:16:01;99274.72;;;0.46;100.00
47726;BME280;33483;48.294;16.388;2022-11-20T07:18:29;99287.72;;;0.51;100.00
47726;BME280;33483;48.294;16.388;2022-11-20T07:20:59;99279.44;;;0.45;100.00
47726;BME280;33483;48.294;16.388;2022-11-20T07:23:26;99280.28;;;0.51;100.00
47726;BME280;33483;48.294;16.388;2022-11-20T07:25:55;99279.81;;;0.53;100.00
47726;BME280;33483;48.294;16.388;2022-11-20T07:28:23;99281.19;;;0.57;100.00
47726;BME280;33483;48.294;16.388;2022-11-20T07:30:53;99289.91;;;0.61;100.00
47726;BME280;33483;48.294;16.388;2022-11-20T07:33:20;99292.94;;;0.63;100.00
47726;BME280;33483;48.294;16.388;2022-11-20T07:35:47;99290.66;;;0.62;100.00
47726;BME280;33483;48.294;16.388;2022-11-20T07:38:15;99299.16;;;0.64;100.00
47726;BME280;33483;48.294;16.388;2022-11-20T07:40:42;99290.78;;;0.67;100.00
47726;BME280;33483;48.294;16.388;2022-11-20T07:43:12;99299.06;;;0.73;100.00
47726;BME280;33483;48.294;16.388;2022-11-20T07:45:38;99296.34;;;0.73;100.00
47726;BME280;33483;48.294;16.388;2022-11-20T07:48:06;99301.81;;;0.73;100.00
47726;BME280;33483;48.294;16.388;2022-11-20T07:50:33;99302.53;;;0.73;100.00
47726;BME280;33483;48.294;16.388;2022-11-20T07:53:04;99297.84;;;0.74;100.00
47726;BME280;33483;48.294;16.388;2022-11-20T07:55:33;99311.00;;;0.75;100.00
47726;BME280;33483;48.294;16.388;2022-11-20T07:58:00;99305.84;;;0.77;100.00
47726;BME280;33483;48.294;16.388;2022-11-20T08:00:27;99299.94;;;0.79;100.00
47726;BME280;33483;48.294;16.388;2022-11-20T08:02:57;99307.00;;;0.85;100.00
47726;BME280;33483;48.294;16.388;2022-11-20T08:05:27;99309.56;;;0.89;100.00
47726;BME280;33483;48.294;16.388;2022-11-20T08:07:55;99307.69;;;0.95;100.00
47726;BME280;33483;48.294;16.388;2022-11-20T08:10:22;99307.50;;;0.98;100.00
47726;BME280;33483;48.294;16.388;2022-11-20T08:12:51;99297.34;;;0.99;100.00
47726;BME280;33483;48.294;16.388;2022-11-20T08:15:38;99290.56;;;1.09;100.00
47726;BME280;33483;48.294;16.388;2022-11-20T08:18:10;99296.44;;;1.17;100.00
47726;BME280;33483;48.294;16.388;2022-11-20T08:21:02;99303.13;;;1.30;100.00
47726;BME280;33483;48.294;16.388;2022-11-20T08:23:31;99300.00;;;1.23;100.00
47726;BME280;33483;48.294;16.388;2022-11-20T08:25:58;99305.84;;;1.30;100.00
47726;BME280;33483;48.294;16.388;2022-11-20T08:28:25;99300.94;;;1.34;100.00
47726;BME280;33483;48.294;16.388;2022-11-20T08:30:58;99306.78;;;1.56;100.00
47726;BME280;33483;48.294;16.388;2022-11-20T08:33:25;99315.03;;;1.76;100.00
47726;BME280;33483;48.294;16.388;2022-11-20T08:35:53;99306.19;;;1.81;100.00
47726;BME280;33483;48.294;16.388;2022-11-20T08:38:20;99307.78;;;1.73;100.00
47726;BME280;33483;48.294;16.388;2022-11-20T08:40:47;99311.00;;;1.72;100.00
47726;BME280;33483;48.294;16.388;2022-11-20T08:43:34;99299.59;;;1.73;100.00
47726;BME280;33483;48.294;16.388;2022-11-20T08:46:01;99306.06;;;1.90;100.00
47726;BME280;33483;48.294;16.388;2022-11-20T08:48:31;99304.69;;;1.80;100.00
47726;BME280;33483;48.294;16.388;2022-11-20T08:50:58;99304.00;;;1.85;100.00
47726;BME280;33483;48.294;16.388;2022-11-20T08:53:27;99301.00;;;1.83;100.00
47726;BME280;33483;48.294;16.388;2022-11-20T08:55:54;99303.31;;;1.90;100.00
47726;BME280;33483;48.294;16.388;2022-11-20T08:58:21;99310.63;;;1.79;100.00
47726;BME280;33483;48.294;16.388;2022-11-20T09:00:49;99303.38;;;1.61;100.00
47726;BME280;33483;48.294;16.388;2022-11-20T09:03:16;99300.38;;;1.59;100.00
47726;BME280;33483;48.294;16.388;2022-11-20T09:05:43;99303.75;;;1.54;100.00
47726;BME280;33483;48.294;16.388;2022-11-20T09:08:11;99305.00;;;1.53;100.00
47726;BME280;33483;48.294;16.388;2022-11-20T09:10:38;99293.78;;;1.51;100.00
47726;BME280;33483;48.294;16.388;2022-11-20T09:13:13;99292.94;;;1.45;100.00
47726;BME280;33483;48.294;16.388;2022-11-20T09:15:40;99287.56;;;1.51;100.00
47726;BME280;33483;48.294;16.388;2022-11-20T09:18:08;99294.53;;;1.52;100.00
47726;BME280;33483;48.294;16.388;2022-11-20T09:20:35;99290.38;;;1.56;100.00
47726;BME280;33483;48.294;16.388;2022-11-20T09:23:03;99282.47;;;1.58;100.00
47726;BME280;33483;48.294;16.388;2022-11-20T09:25:30;99282.00;;;1.60;100.00
47726;BME280;33483;48.294;16.388;2022-11-20T09:27:58;99282.28;;;1.62;100.00
47726;BME280;33483;48.294;16.388;2022-11-20T09:30:26;99288.97;;;1.61;100.00
47726;BME280;33483;48.294;16.388;2022-11-20T09:32:54;99292.06;;;1.54;100.00
47726;BME280;33483;48.294;16.388;2022-11-20T09:35:22;99286.91;;;1.56;100.00
47726;BME280;33483;48.294;16.388;2022-11-20T09:37:49;99291.59;;;1.55;100.00
47726;BME280;33483;48.294;16.388;2022-11-20T09:45:50;99279.66;;;1.53;100.00
47726;BME280;33483;48.294;16.388;2022-11-20T09:56:40;99271.53;;;1.73;100.00
47726;BME280;33483;48.294;16.388;2022-11-20T09:59:29;99265.66;;;1.80;100.00
47726;BME280;33483;48.294;16.388;2022-11-20T10:01:59;99259.19;;;1.77;100.00
47726;BME280;33483;48.294;16.388;2022-11-20T10:04:30;99259.47;;;1.79;100.00
47726;BME280;33483;48.294;16.388;2022-11-20T10:07:14;99259.47;;;1.79;100.00
47726;BME280;33483;48.294;16.388;2022-11-20T10:09:59;99261.88;;;1.92;100.00
47726;BME280;33483;48.294;16.388;2022-11-20T10:15:28;99255.94;;;1.93;100.00
47726;BME280;33483;48.294;16.388;2022-11-20T10:18:08;99259.41;;;1.94;100.00
47726;BME280;33483;48.294;16.388;2022-11-20T10:28:52;99244.75;;;1.91;100.00
47726;BME280;33483;48.294;16.388;2022-11-20T10:31:34;99254.91;;;1.91;100.00
47726;BME280;33483;48.294;16.388;2022-11-20T10:37:04;99243.38;;;2.01;100.00
47726;BME280;33483;48.294;16.388;2022-11-20T10:40:01;99239.22;;;2.06;100.00
47726;BME280;33483;48.294;16.388;2022-11-20T10:47:58;99250.31;;;2.37;100.00
47726;BME280;33483;48.294;16.388;2022-11-20T10:50:42;99249.22;;;2.49;100.00
47726;BME280;33483;48.294;16.388;2022-11-20T10:53:26;99249.63;;;2.42;100.00
47726;BME280;33483;48.294;16.388;2022-11-20T11:01:17;99235.41;;;2.84;100.00
47726;BME280;33483;48.294;16.388;2022-11-20T11:03:45;99228.56;;;2.94;100.00
47726;BME280;33483;48.294;16.388;2022-11-20T11:08:49;99226.50;;;3.82;100.00
47726;BME280;33483;48.294;16.388;2022-11-20T11:11:21;99232.34;;;3.95;100.00
47726;BME280;33483;48.294;16.388;2022-11-20T11:13:50;99232.41;;;4.12;100.00
47726;BME280;33483;48.294;16.388;2022-11-20T11:18:48;99229.69;;;4.17;100.00
47726;BME280;33483;48.294;16.388;2022-11-20T11:21:25;99232.38;;;4.06;100.00
47726;BME280;33483;48.294;16.388;2022-11-20T11:24:01;99233.66;;;4.11;100.00
47726;BME280;33483;48.294;16.388;2022-11-20T11:27:00;99231.88;;;4.02;100.00
47726;BME280;33483;48.294;16.388;2022-11-20T11:29:31;99229.06;;;3.91;100.00
47726;BME280;33483;48.294;16.388;2022-11-20T11:32:15;99221.88;;;3.94;100.00
47726;BME280;33483;48.294;16.388;2022-11-20T11:34:43;99218.66;;;4.01;100.00
47726;BME280;33483;48.294;16.388;2022-11-20T11:37:17;99215.16;;;4.00;100.00
47726;BME280;33483;48.294;16.388;2022-11-20T11:39:46;99219.56;;;3.87;100.00
47726;BME280;33483;48.294;16.388;2022-11-20T11:42:30;99213.25;;;3.75;100.00
47726;BME280;33483;48.294;16.388;2022-11-20T11:44:59;99217.25;;;3.74;100.00
47726;BME280;33483;48.294;16.388;2022-11-20T11:55:42;99199.59;;;3.81;100.00
47726;BME280;33483;48.294;16.388;2022-11-20T11:58:15;99195.19;;;3.94;100.00
47726;BME280;33483;48.294;16.388;2022-11-20T12:00:55;99188.31;;;4.15;100.00
47726;BME280;33483;48.294;16.388;2022-11-20T12:03:38;99188.63;;;4.28;100.00
47726;BME280;33483;48.294;16.388;2022-11-20T12:06:12;99186.69;;;4.45;100.00
47726;BME280;33483;48.294;16.388;2022-11-20T12:08:59;99182.19;;;4.53;100.00
47726;BME280;33483;48.294;16.388;2022-11-20T12:14:17;99179.22;;;4.57;100.00
47726;BME280;33483;48.294;16.388;2022-11-20T12:16:45;99180.28;;;4.82;100.00
47726;BME280;33483;48.294;16.388;2022-11-20T12:19:14;99173.78;;;4.85;100.00
47726;BME280;33483;48.294;16.388;2022-11-20T12:30:15;99186.78;;;5.28;100.00
47726;BME280;33483;48.294;16.388;2022-11-20T12:45:06;99182.78;;;5.57;100.00
47726;BME280;33483;48.294;16.388;2022-11-20T12:50:28;99180.22;;;5.81;100.00
47726;BME280;33483;48.294;16.388;2022-11-20T12:53:07;99182.00;;;5.73;100.00
47726;BME280;33483;48.294;16.388;2022-11-20T12:55:56;99178.25;;;5.70;100.00
47726;BME280;33483;48.294;16.388;2022-11-20T12:58:36;99170.31;;;5.39;100.00
47726;BME280;33483;48.294;16.388;2022-11-20T13:07:10;99157.31;;;5.18;100.00
47726;BME280;33483;48.294;16.388;2022-11-20T13:09:45;99156.59;;;5.17;100.00
47726;BME280;33483;48.294;16.388;2022-11-20T13:12:40;99150.84;;;5.15;100.00
47726;BME280;33483;48.294;16.388;2022-11-20T13:15:11;99148.59;;;5.19;100.00
47726;BME280;33483;48.294;16.388;2022-11-20T13:17:57;99154.56;;;5.23;100.00
47726;BME280;33483;48.294;16.388;2022-11-20T13:20:26;99147.34;;;5.09;100.00
47726;BME280;33483;48.294;16.388;2022-11-20T13:22:55;99150.84;;;5.10;100.00
47726;BME280;33483;48.294;16.388;2022-11-20T13:25:40;99147.84;;;5.08;100.00
47726;BME280;33483;48.294;16.388;2022-11-20T13:30:50;99139.13;;;4.98;100.00
47726;BME280;33483;48.294;16.388;2022-11-20T13:33:29;99144.84;;;5.06;100.00
47726;BME280;33483;48.294;16.388;2022-11-20T13:36:03;99138.09;;;5.07;100.00
47726;BME280;33483;48.294;16.388;2022-11-20T13:38:45;99135.13;;;5.10;100.00
47726;BME280;33483;48.294;16.388;2022-11-20T13:41:53;99137.09;;;4.99;100.00
47726;BME280;33483;48.294;16.388;2022-11-20T13:47:20;99133.59;;;4.82;100.00
47726;BME280;33483;48.294;16.388;2022-11-20T13:49:48;99124.63;;;4.76;100.00
47726;BME280;33483;48.294;16.388;2022-11-20T13:52:38;99123.59;;;4.62;100.00
47726;BME280;33483;48.294;16.388;2022-11-20T13:55:20;99126.09;;;4.54;100.00
47726;BME280;33483;48.294;16.388;2022-11-20T13:58:06;99123.59;;;4.51;100.00
47726;BME280;33483;48.294;16.388;2022-11-20T14:00:51;99108.59;;;4.46;100.00
47726;BME280;33483;48.294;16.388;2022-11-20T14:03:23;99107.34;;;4.36;100.00
47726;BME280;33483;48.294;16.388;2022-11-20T14:06:21;99110.56;;;4.35;100.00
47726;BME280;33483;48.294;16.388;2022-11-20T14:08:52;99110.81;;;4.31;100.00
47726;BME280;33483;48.294;16.388;2022-11-20T14:11:27;99109.56;;;4.27;100.00
47726;BME280;33483;48.294;16.388;2022-11-20T14:14:15;99102.56;;;4.26;100.00
47726;BME280;33483;48.294;16.388;2022-11-20T14:16:47;99121.00;;;4.25;100.00
47726;BME280;33483;48.294;16.388;2022-11-20T14:19:26;99111.81;;;4.28;100.00
47726;BME280;33483;48.294;16.388;2022-11-20T14:24:36;99105.78;;;4.19;100.00
47726;BME280;33483;48.294;16.388;2022-11-20T14:27:12;99095.59;;;4.19;100.00
47726;BME280;33483;48.294;16.388;2022-11-20T14:29:41;99092.84;;;4.19;100.00
47726;BME280;33483;48.294;16.388;2022-11-20T14:32:11;99089.34;;;4.19;100.00
47726;BME280;33483;48.294;16.388;2022-11-20T14:34:44;99091.13;;;4.22;100.00
47726;BME280;33483;48.294;16.388;2022-11-20T14:37:20;99093.84;;;4.22;100.00
47726;BME280;33483;48.294;16.388;2022-11-20T14:39:52;99097.06;;;4.20;100.00
47726;BME280;33483;48.294;16.388;2022-11-20T14:42:23;99102.56;;;4.20;100.00
47726;BME280;33483;48.294;16.388;2022-11-20T14:44:54;99098.31;;;4.19;100.00
47726;BME280;33483;48.294;16.388;2022-11-20T14:47:27;99098.81;;;4.12;100.00